Time;durP1;ratioP1;P1;durP2;ratioP2;P2;SDS_P1;SDS_P2;PMS_P1;PMS_P2;Temp;Humidity;BMP_temperature;BMP_pressure;BME280_temperature;BME280_humidity;BME280_pressure;Samples;Min_cycle;Max_cycle;Signal;HPM_P1;HPM_P2
2023/12/26 04:39:24;;;;;;;17.83;8.90;;;2.70;80.60;;;1.08;100.00;95569.75;5039135;28;20397;-51
2023/12/26 04:41:50;;;;;;;19.35;9.50;;;2.60;82.30;;;1.22;100.00;95574.97;5015698;28;20029;-53
2023/12/26 04:44:16;;;;;;;21.70;8.93;;;3.10;82.10;;;1.27;100.00;95580.41;5021830;28;20449;-57
2023/12/26 04:46:42;;;;;;;16.40;8.60;;;3.70;81.00;;;1.36;100.00;95584.44;5001979;28;20431;-57
2023/12/26 04:49:08;;;;;;;16.33;7.85;;;4.20;79.80;;;1.44;100.00;95586.00;4987128;28;20381;-51
2023/12/26 04:51:34;;;;;;;14.35;7.40;;;4.70;78.80;;;1.46;100.00;95586.63;5000904;28;20075;-53
2023/12/26 04:54:01;;;;;;;19.77;7.75;;;5.00;77.80;;;1.58;100.00;95587.59;4990477;28;20088;-51
2023/12/26 04:56:27;;;;;;;11.88;7.00;;;5.30;77.10;;;1.64;100.00;95604.34;5007148;28;20116;-49
2023/12/26 04:58:53;;;;;;;14.52;6.60;;;5.60;76.60;;;1.66;100.00;95594.41;4987419;28;20026;-51
2023/12/26 05:01:20;;;;;;;13.68;6.07;;;5.80;76.00;;;1.66;100.00;95599.66;4996585;28;20025;-50
2023/12/26 05:03:47;;;;;;;9.68;6.50;;;6.00;75.50;;;1.74;100.00;95588.94;5000660;28;20033;-54
2023/12/26 05:06:19;;;;;;;13.40;6.50;;;6.10;75.20;;;1.80;100.00;95588.91;4987440;28;20021;-53
2023/12/26 05:08:45;;;;;;;9.25;6.50;;;6.30;75.10;;;1.85;100.00;95590.91;4998661;28;20109;-54
2023/12/26 05:11:24;;;;;;;13.77;5.53;;;6.40;74.80;;;1.90;100.00;95588.44;4993753;28;20045;-56
2023/12/26 05:13:51;;;;;;;9.90;5.22;;;6.50;74.60;;;1.90;100.00;95592.91;5020285;28;20022;-53
2023/12/26 05:16:17;;;;;;;10.18;5.72;;;6.60;74.30;;;1.90;100.00;95593.69;4995394;28;20025;-52
2023/12/26 05:18:43;;;;;;;8.23;5.55;;;6.60;74.00;;;1.94;100.00;95600.13;4997978;28;20503;-54
2023/12/26 05:21:21;;;;;;;8.63;5.05;;;6.70;73.90;;;1.97;100.00;95601.53;4990927;28;20025;-54
2023/12/26 05:23:48;;;;;;;16.40;5.22;;;6.70;73.80;;;1.93;100.00;95605.63;4990100;28;20492;-51
2023/12/26 05:26:15;;;;;;;12.13;5.43;;;6.70;73.50;;;1.96;100.00;95606.00;4995413;28;20022;-54
2023/12/26 05:28:42;;;;;;;11.85;6.07;;;6.80;73.50;;;1.99;100.00;95604.78;4991275;28;20511;-52
2023/12/26 05:31:08;;;;;;;7.22;4.82;;;6.80;73.50;;;1.98;100.00;95601.34;4990724;28;20751;-55
2023/12/26 05:33:34;;;;;;;17.23;6.05;;;6.80;73.30;;;1.98;100.00;95611.84;4997560;28;20025;-50
2023/12/26 05:36:01;;;;;;;15.98;6.38;;;6.80;73.30;;;1.99;100.00;95610.84;5006216;23;20131;-56
2023/12/26 05:38:27;;;;;;;13.73;5.97;;;6.90;73.30;;;2.03;100.00;95614.63;5005568;28;20034;-54
2023/12/26 05:40:53;;;;;;;11.95;6.10;;;6.90;73.30;;;2.04;100.00;95608.41;5005461;28;20026;-57
2023/12/26 05:43:19;;;;;;;10.63;6.05;;;6.90;73.30;;;2.07;100.00;95613.22;5005392;28;20383;-58
2023/12/26 05:45:45;;;;;;;8.60;5.55;;;6.90;73.30;;;2.09;100.00;95611.19;4998970;28;20025;-56
2023/12/26 05:48:11;;;;;;;12.88;6.07;;;6.90;73.30;;;2.10;100.00;95614.63;4984208;28;20026;-55
2023/12/26 05:50:36;;;;;;;7.88;5.63;;;6.90;73.30;;;2.14;100.00;95621.06;4969597;28;20606;-55
2023/12/26 05:53:03;;;;;;;9.85;5.78;;;6.90;73.30;;;2.19;100.00;95620.44;4971289;28;20033;-59
2023/12/26 05:55:29;;;;;;;11.32;5.20;;;6.90;73.50;;;2.21;100.00;95615.78;4967748;28;20022;-55
2023/12/26 05:57:55;;;;;;;9.75;4.63;;;7.00;73.50;;;2.25;100.00;95620.38;4969006;28;20023;-56
2023/12/26 06:00:21;;;;;;;13.52;5.70;;;7.00;73.50;;;2.29;100.00;95618.97;4972416;28;20026;-58
2023/12/26 06:02:47;;;;;;;12.70;5.15;;;7.00;73.50;;;2.31;100.00;95637.16;4967540;28;20038;-58
2023/12/26 06:05:13;;;;;;;8.55;5.00;;;7.00;73.50;;;2.30;100.00;95631.09;4965000;28;20638;-56
2023/12/26 06:07:39;;;;;;;7.70;5.30;;;7.10;73.50;;;2.31;100.00;95642.41;4964884;28;20030;-52
2023/12/26 06:10:05;;;;;;;8.30;5.40;;;7.10;73.50;;;2.34;100.00;95639.34;4971535;28;20408;-54
2023/12/26 06:12:31;;;;;;;12.95;5.00;;;7.10;73.40;;;2.35;100.00;95643.63;4963208;28;20432;-58
2023/12/26 06:14:57;;;;;;;12.20;5.13;;;7.10;73.40;;;2.38;100.00;95651.03;4969593;28;20026;-53
2023/12/26 06:17:24;;;;;;;8.00;4.53;;;7.10;73.40;;;2.35;100.00;95643.63;4965991;28;20030;-56
2023/12/26 06:19:50;;;;;;;11.35;4.88;;;7.20;73.30;;;2.36;100.00;95649.66;4970447;28;20396;-55
2023/12/26 06:22:16;;;;;;;7.85;5.07;;;7.20;73.20;;;2.37;100.00;95653.91;4966446;28;20113;-57
2023/12/26 06:24:41;;;;;;;9.80;4.80;;;7.10;73.20;;;2.33;100.00;95650.09;4968601;28;20116;-54
2023/12/26 06:27:07;;;;;;;10.43;5.22;;;7.20;73.20;;;2.37;100.00;95656.53;4971123;28;20028;-57
2023/12/26 06:29:33;;;;;;;8.30;5.10;;;7.20;73.20;;;2.37;100.00;95657.34;4966970;28;20109;-57
2023/12/26 06:31:59;;;;;;;7.70;4.55;;;7.20;73.30;;;2.39;100.00;95665.03;4967973;28;20045;-58
2023/12/26 06:34:25;;;;;;;10.73;5.00;;;7.10;73.20;;;2.37;100.00;95665.22;4973122;28;20033;-56
2023/12/26 06:36:51;;;;;;;9.63;4.88;;;7.10;73.10;;;2.39;100.00;95672.91;4971299;28;20050;-55
2023/12/26 06:39:17;;;;;;;9.02;5.00;;;7.10;73.10;;;2.40;100.00;95677.16;4966197;28;20062;-57
2023/12/26 06:41:43;;;;;;;12.25;4.68;;;7.20;73.20;;;2.41;100.00;95676.91;4960734;28;20033;-56
2023/12/26 06:44:10;;;;;;;8.75;4.55;;;7.20;73.20;;;2.41;100.00;95679.53;4984968;28;20050;-56
2023/12/26 06:46:42;;;;;;;8.75;4.82;;;7.20;73.10;;;2.42;100.00;95681.19;4965563;28;20018;-55
2023/12/26 06:49:09;;;;;;;12.30;4.82;;;7.20;73.20;;;2.41;100.00;95681.38;4964825;28;20041;-56
2023/12/26 06:51:41;;;;;;;12.65;5.18;;;7.20;73.00;;;2.43;100.00;95692.50;4969172;28;20026;-56
2023/12/26 06:54:07;;;;;;;8.95;4.75;;;7.20;73.10;;;2.42;100.00;95683.81;4963298;28;20445;-56
2023/12/26 06:56:33;;;;;;;7.53;4.68;;;7.20;73.00;;;2.41;100.00;95684.81;4965273;28;20058;-57
2023/12/26 06:58:59;;;;;;;11.02;5.35;;;7.20;73.00;;;2.43;100.00;95692.50;4968896;28;20037;-56
2023/12/26 07:01:26;;;;;;;9.32;4.68;;;7.20;73.00;;;2.44;100.00;95681.75;4966185;28;20061;-57
2023/12/26 07:03:52;;;;;;;7.60;4.95;;;7.20;73.00;;;2.45;100.00;95686.03;4967920;28;20037;-56
2023/12/26 07:06:18;;;;;;;8.27;4.30;;;7.20;73.00;;;2.45;100.00;95690.47;4970679;28;20030;-54
2023/12/26 07:08:44;;;;;;;8.57;4.40;;;7.30;73.10;;;2.47;100.00;95691.84;4966137;28;20045;-56
2023/12/26 07:11:09;;;;;;;11.20;4.88;;;7.30;73.10;;;2.49;100.00;95689.03;4973139;28;20026;-56
2023/12/26 07:13:35;;;;;;;12.05;4.68;;;7.20;73.00;;;2.50;100.00;95693.25;4965936;28;20026;-58
2023/12/26 07:16:01;;;;;;;9.93;4.70;;;7.30;73.00;;;2.50;100.00;95691.44;4970438;28;20026;-57
2023/12/26 07:18:27;;;;;;;8.88;4.60;;;7.30;73.00;;;2.50;100.00;95695.88;4970720;28;20030;-56
2023/12/26 07:20:53;;;;;;;10.48;4.80;;;7.30;73.00;;;2.53;100.00;95703.34;4970226;28;20030;-54
2023/12/26 07:23:19;;;;;;;13.98;4.70;;;7.30;73.70;;;2.54;100.00;95702.38;4965338;28;20026;-59
2023/12/26 07:25:45;;;;;;;7.97;4.57;;;7.30;73.00;;;2.56;100.00;95713.47;4968646;28;20408;-59
2023/12/26 07:28:14;;;;;;;6.63;4.28;;;7.40;73.00;;;2.59;100.00;95718.28;4967640;28;20022;-55
2023/12/26 07:30:40;;;;;;;11.77;5.00;;;7.40;73.00;;;2.61;100.00;95723.34;4967754;28;20050;-58
2023/12/26 07:33:06;;;;;;;6.68;4.75;;;7.40;73.00;;;2.63;100.00;95732.63;4967296;28;20498;-56
2023/12/26 07:35:38;;;;;;;10.18;4.80;;;7.40;73.00;;;2.66;100.00;95742.72;4966460;28;20121;-56
2023/12/26 07:38:04;;;;;;;7.57;4.40;;;7.40;73.00;;;2.66;100.00;95742.72;4966354;28;20089;-55
2023/12/26 07:40:32;;;;;;;12.55;4.65;;;7.50;73.00;;;2.71;100.00;95750.00;4968701;28;20109;-58
2023/12/26 07:42:58;;;;;;;10.18;3.92;;;7.50;72.90;;;2.71;100.00;95739.47;4966203;28;20026;-56
2023/12/26 07:45:25;;;;;;;6.15;3.80;;;7.50;72.80;;;2.71;100.00;95750.00;4965522;28;20591;-58
2023/12/26 07:47:52;;;;;;;7.35;3.63;;;7.50;72.80;;;2.75;100.00;95752.00;4964053;28;20077;-58
2023/12/26 07:50:18;;;;;;;6.20;3.90;;;7.60;72.80;;;2.78;100.00;95761.28;4972248;28;20045;-58
2023/12/26 07:52:44;;;;;;;8.02;3.72;;;7.60;72.70;;;2.80;100.00;95755.84;4962819;28;20030;-58
2023/12/26 07:55:11;;;;;;;5.53;3.58;;;7.60;72.70;;;2.83;100.00;95761.47;4967648;28;20018;-56
2023/12/26 07:57:37;;;;;;;5.78;3.38;;;7.70;72.70;;;2.87;100.00;95764.47;4985276;28;20035;-57
2023/12/26 08:00:05;;;;;;;7.95;3.75;;;7.70;72.70;;;2.91;100.00;95769.09;4968402;28;20496;-57
2023/12/26 08:02:30;;;;;;;12.25;3.72;;;7.80;72.70;;;2.95;100.00;95770.31;4971973;28;20076;-58
2023/12/26 08:04:56;;;;;;;6.47;2.97;;;7.80;72.60;;;3.02;100.00;95772.91;4967843;28;20030;-59
2023/12/26 08:07:22;;;;;;;8.75;3.28;;;7.90;72.60;;;3.05;100.00;95776.94;4970080;28;20040;-58
2023/12/26 08:09:48;;;;;;;4.78;2.95;;;7.90;72.50;;;3.09;100.00;95768.38;4967614;28;20061;-55
2023/12/26 08:12:14;;;;;;;7.43;3.20;;;8.00;72.40;;;3.13;100.00;95771.41;4963687;28;20026;-59
2023/12/26 08:14:40;;;;;;;9.35;3.28;;;8.10;72.40;;;3.20;100.00;95774.81;4966721;28;20030;-57
2023/12/26 08:17:06;;;;;;;6.85;3.08;;;8.10;72.20;;;3.23;100.00;95771.75;4966958;28;20403;-58
2023/12/26 08:19:32;;;;;;;8.45;2.97;;;8.20;72.20;;;3.28;100.00;95774.53;4965615;28;20475;-58
2023/12/26 08:21:57;;;;;;;6.57;2.83;;;8.30;72.00;;;3.29;100.00;95772.69;4966120;28;20031;-58
2023/12/26 08:24:23;;;;;;;4.55;3.25;;;8.40;72.00;;;3.34;100.00;95773.69;4969590;28;20044;-59
2023/12/26 08:26:53;;;;;;;6.75;3.20;;;8.40;71.80;;;3.39;100.00;95773.84;4964267;28;20030;-58
2023/12/26 08:29:20;;;;;;;8.13;3.10;;;8.50;71.70;;;3.44;100.00;95776.63;4970856;28;20023;-57
2023/12/26 08:31:46;;;;;;;6.18;3.30;;;8.60;71.70;;;3.49;100.00;95776.00;4962404;28;20037;-58
2023/12/26 08:34:13;;;;;;;7.80;3.10;;;8.60;71.50;;;3.53;100.00;95787.72;4970233;28;20431;-58
2023/12/26 08:36:39;;;;;;;4.60;2.40;;;8.70;71.50;;;3.58;100.00;95785.25;4967505;28;20054;-56
2023/12/26 08:39:05;;;;;;;4.03;2.75;;;8.70;71.40;;;3.64;100.00;95787.03;4964978;28;20144;-59
2023/12/26 08:41:30;;;;;;;5.78;2.38;;;8.80;71.40;;;3.68;100.00;95792.66;4983354;28;20049;-57
2023/12/26 08:43:56;;;;;;;9.23;2.90;;;8.80;71.30;;;3.75;100.00;95805.78;4962948;28;20069;-58
2023/12/26 08:46:22;;;;;;;4.03;2.35;;;8.90;71.20;;;3.80;100.00;95800.69;4967284;28;20045;-57
2023/12/26 08:48:48;;;;;;;7.00;2.63;;;8.90;71.10;;;3.85;100.00;95801.63;4967441;28;20114;-54
2023/12/26 08:51:14;;;;;;;7.13;2.55;;;9.00;71.00;;;3.89;100.00;95808.09;4965893;28;20312;-58
2023/12/26 08:53:40;;;;;;;7.28;2.90;;;9.10;70.90;;;3.94;100.00;95808.22;4961812;28;20038;-58
2023/12/26 08:56:06;;;;;;;5.47;2.97;;;9.20;70.80;;;3.99;100.00;95807.59;4963929;28;20037;-58
2023/12/26 08:58:32;;;;;;;5.28;2.65;;;9.20;70.60;;;4.01;100.00;95804.72;4964069;28;20034;-58
2023/12/26 09:01:01;;;;;;;5.20;2.50;;;9.30;70.50;;;4.01;100.00;95807.34;4969697;28;20551;-57
2023/12/26 09:03:28;;;;;;;8.10;2.67;;;9.40;71.20;;;4.08;100.00;95813.41;4967474;28;20058;-58
2023/12/26 09:05:54;;;;;;;5.53;2.30;;;9.50;70.30;;;4.15;100.00;95814.13;4960572;28;20033;-55
2023/12/26 09:08:20;;;;;;;5.63;2.70;;;9.50;70.10;;;4.19;100.00;95823.22;4966176;28;20057;-58
2023/12/26 09:10:46;;;;;;;4.50;2.42;;;9.60;70.00;;;4.25;100.00;95830.25;4967832;28;20053;-55
2023/12/26 09:13:12;;;;;;;7.25;2.47;;;9.70;69.90;;;4.39;100.00;95825.66;4964091;28;20049;-58
2023/12/26 09:15:38;;;;;;;3.28;2.25;;;9.80;69.80;;;4.48;100.00;95837.53;4966444;28;20099;-56
2023/12/26 09:18:05;;;;;;;5.43;2.50;;;9.90;69.70;;;4.55;100.00;95832.19;4962092;28;20035;-58
2023/12/26 09:20:30;;;;;;;5.13;2.38;;;10.00;69.40;;;4.64;100.00;95834.31;4964836;28;20034;-58
2023/12/26 09:22:56;;;;;;;3.80;2.22;;;10.10;69.20;;;4.75;100.00;95840.66;4968806;28;20021;-58
2023/12/26 09:25:22;;;;;;;3.15;2.20;;;10.20;69.10;;;4.85;100.00;95840.94;4964988;28;20469;-56
2023/12/26 09:27:48;;;;;;;7.05;2.22;;;10.30;69.10;;;4.94;100.00;95835.34;4970019;28;20026;-58
2023/12/26 09:30:15;;;;;;;3.35;2.25;;;10.40;68.90;;;4.95;100.00;95824.59;4980279;28;20077;-55
2023/12/26 09:32:41;;;;;;;3.85;2.00;;;10.50;68.70;;;5.01;100.00;95830.78;4966150;28;20228;-57
2023/12/26 09:35:08;;;;;;;3.22;1.73;;;10.50;68.30;;;5.09;100.00;95833.13;4971607;28;20494;-58
2023/12/26 09:37:38;;;;;;;6.75;2.20;;;10.60;68.20;;;5.14;100.00;95832.44;4973492;28;20523;-56
2023/12/26 09:40:08;;;;;;;7.93;2.08;;;10.70;68.00;;;5.19;100.00;95833.41;4969781;28;20034;-54
2023/12/26 09:42:34;;;;;;;5.55;2.33;;;10.80;67.80;;;5.26;100.00;95836.75;4968896;28;20109;-58
2023/12/26 09:45:03;;;;;;;3.33;2.38;;;10.80;67.60;;;5.28;100.00;95829.41;4972880;28;20097;-56
2023/12/26 09:47:32;;;;;;;5.88;2.53;;;10.90;67.50;;;5.36;100.00;95838.88;4969568;28;20073;-55
2023/12/26 09:49:58;;;;;;;4.57;2.20;;;10.90;67.20;;;5.47;100.00;95832.78;4965447;28;20397;-53
2023/12/26 09:52:28;;;;;;;4.97;2.20;;;11.00;67.00;;;5.54;100.00;95835.34;4970041;28;20069;-56
2023/12/26 09:54:57;;;;;;;5.10;2.40;;;11.10;66.90;;;5.63;100.00;95847.19;4969060;28;20018;-55
2023/12/26 09:57:24;;;;;;;3.30;2.20;;;11.10;66.70;;;5.66;100.00;95848.59;4973086;28;20095;-55
2023/12/26 09:59:51;;;;;;;4.93;2.10;;;11.30;66.70;;;5.72;100.00;95858.25;4968423;28;20050;-56
2023/12/26 10:02:17;;;;;;;3.17;2.10;;;11.30;66.40;;;5.73;100.00;95855.38;4967143;28;20018;-54
2023/12/26 10:04:45;;;;;;;4.55;2.10;;;11.40;66.10;;;5.72;99.77;95853.75;4967392;28;20037;-58
2023/12/26 10:07:14;;;;;;;4.65;2.30;;;11.50;65.90;;;5.82;100.00;95852.41;4973473;28;20053;-56
2023/12/26 10:09:43;;;;;;;4.93;2.17;;;11.60;65.80;;;5.90;100.00;95858.16;4964589;28;20026;-58
2023/12/26 10:12:09;;;;;;;3.20;2.33;;;11.60;65.60;;;5.96;99.63;95857.28;4968245;28;20092;-56
2023/12/26 10:14:35;;;;;;;5.07;2.63;;;11.70;65.50;;;6.01;98.59;95852.09;4972366;28;20026;-56
2023/12/26 10:17:01;;;;;;;5.22;2.50;;;11.70;65.20;;;6.05;99.46;95857.75;4971510;28;20026;-57
2023/12/26 10:19:27;;;;;;;5.65;2.47;;;11.80;65.00;;;6.14;99.38;95861.69;4966868;28;20500;-57
2023/12/26 10:21:54;;;;;;;4.03;2.00;;;11.80;64.90;;;6.16;97.21;95856.94;4970356;28;20026;-58
2023/12/26 10:24:21;;;;;;;5.85;2.67;;;11.90;64.70;;;6.12;95.72;95847.88;4966797;28;20026;-57
2023/12/26 10:26:48;;;;;;;3.47;2.33;;;12.00;64.40;;;6.22;96.51;95852.59;4968357;28;20109;-57
2023/12/26 10:29:15;;;;;;;5.70;2.85;;;12.10;64.30;;;6.30;96.02;95851.41;4970065;28;20053;-58
2023/12/26 10:31:44;;;;;;;5.70;2.65;;;12.10;64.10;;;6.31;94.71;95850.41;4967277;28;20026;-54
2023/12/26 10:34:20;;;;;;;5.90;2.53;;;12.20;63.90;;;6.35;95.50;95851.53;4971295;28;20469;-56
2023/12/26 10:36:49;;;;;;;5.43;2.35;;;12.20;63.50;;;6.41;94.00;95847.97;4971341;28;20038;-57
2023/12/26 10:39:17;;;;;;;7.53;2.97;;;12.20;63.50;;;6.36;93.99;95856.63;4969632;28;20037;-55
2023/12/26 10:41:47;;;;;;;4.55;2.72;;;12.20;63.30;;;6.36;93.30;95859.28;4966627;28;20138;-57
2023/12/26 10:44:17;;;;;;;3.83;2.42;;;12.20;63.10;;;6.32;92.86;95858.09;4968414;28;20029;-57
2023/12/26 10:46:45;;;;;;;4.53;2.58;;;12.20;62.90;;;6.35;93.41;95859.47;4970477;28;20034;-57
2023/12/26 10:49:26;;;;;;;3.97;2.72;;;12.20;62.90;;;6.45;94.41;95865.78;4964360;28;20053;-57
2023/12/26 10:51:55;;;;;;;4.20;2.60;;;12.30;62.90;;;6.55;94.33;95862.59;4966920;28;20023;-54
2023/12/26 10:54:25;;;;;;;3.92;2.33;;;12.40;63.20;;;6.59;92.26;95855.78;4969999;28;20049;-55
2023/12/26 10:56:52;;;;;;;5.97;2.40;;;12.50;63.00;;;6.65;92.27;95852.22;4967984;28;20018;-55
2023/12/26 13:52:29;;;;;;;5.55;1.95;;;20.60;43.40;;;11.98;57.44;95879.13;4963235;28;20038;-50
2023/12/26 13:56:11;;;;;;;3.55;2.33;;;20.60;43.40;;;11.98;57.08;95867.63;4954866;28;20030;-51
2023/12/26 13:59:52;;;;;;;5.85;2.40;;;20.60;43.60;;;12.18;57.07;95878.31;4957164;28;20493;-49
2023/12/26 14:03:34;;;;;;;4.90;2.55;;;20.80;43.40;;;12.33;56.69;95874.06;4959652;28;20464;-51
2023/12/26 14:07:19;;;;;;;6.60;2.50;;;21.00;43.40;;;12.16;55.59;95874.31;4959061;28;20113;-50
2023/12/26 14:11:01;;;;;;;5.25;2.10;;;21.10;43.00;;;11.81;55.70;95867.84;4968058;28;20354;-52
2023/12/26 14:14:42;;;;;;;5.15;2.33;;;20.80;42.50;;;11.89;57.14;95890.59;4972908;28;20026;-49
2023/12/26 14:18:23;;;;;;;4.25;2.20;;;20.60;42.50;;;11.26;58.05;95877.31;4988689;28;20508;-54
2023/12/26 14:22:03;;;;;;;6.15;2.45;;;20.40;42.30;;;11.14;58.39;95879.41;4958021;28;20085;-49
2023/12/26 14:25:44;;;;;;;5.97;2.28;;;20.20;42.40;;;11.18;58.70;95891.94;4963792;28;20058;-52
2023/12/26 14:29:25;;;;;;;3.38;2.00;;;20.00;42.50;;;11.21;58.86;95877.28;4954371;28;20354;-51
2023/12/26 14:33:06;;;;;;;4.90;2.45;;;19.90;42.80;;;11.13;59.85;95875.94;4954592;28;20030;-50
2023/12/26 14:36:48;;;;;;;6.25;1.95;;;19.80;42.90;;;11.09;60.08;95875.66;4964605;28;20026;-53
2023/12/26 14:40:29;;;;;;;5.13;2.10;;;19.60;43.20;;;10.92;60.02;95892.91;4953965;28;20049;-48
2023/12/26 14:44:10;;;;;;;3.47;2.05;;;19.50;43.20;;;10.72;61.18;95897.06;4968151;28;20034;-48
2023/12/26 14:47:50;;;;;;;5.50;2.10;;;19.40;43.20;;;10.74;60.75;95902.13;4963001;28;20033;-47
2023/12/26 14:51:31;;;;;;;5.70;1.92;;;19.30;43.40;;;10.34;61.39;95901.59;4954296;28;20115;-52
2023/12/26 14:55:12;;;;;;;7.35;2.67;;;19.20;43.20;;;10.10;61.10;95909.09;4968626;28;20049;-52
2023/12/26 14:58:54;;;;;;;5.63;2.85;;;18.90;43.00;;;10.29;61.77;95908.75;4965115;28;20393;-51
2023/12/26 15:01:59;;;;;;;5.00;1.95;;;18.70;43.20;;;10.20;61.61;95897.72;4960645;28;20025;-49
2023/12/26 15:04:26;;;;;;;7.05;2.95;;;18.50;43.20;;;10.11;63.40;95905.38;4965756;28;20038;-52
2023/12/26 15:06:57;;;;;;;7.18;2.08;;;18.30;43.30;;;9.95;62.13;95901.75;4969615;28;20024;-51
2023/12/26 15:09:23;;;;;;;8.68;2.58;;;17.80;43.30;;;9.81;62.92;95905.06;4961808;28;20425;-52
2023/12/26 15:11:49;;;;;;;5.28;1.98;;;17.30;43.70;;;9.66;64.63;95906.53;4952432;28;20070;-48
2023/12/26 15:14:17;;;;;;;6.50;2.08;;;16.80;44.30;;;9.56;64.09;95908.28;4953780;28;20593;-52
2023/12/26 15:16:43;;;;;;;4.50;1.90;;;16.30;44.80;;;9.38;64.78;95915.56;4953212;28;20052;-54
2023/12/26 15:19:09;;;;;;;3.38;1.52;;;15.90;45.30;;;9.20;64.80;95915.88;4984236;28;20026;-53
2023/12/26 15:21:44;;;;;;;5.05;1.83;;;15.50;45.90;;;8.98;66.29;95915.84;4967361;28;20528;-53
2023/12/26 15:24:11;;;;;;;6.30;1.70;;;15.10;46.40;;;8.88;67.45;95929.00;4961319;28;20088;-49
2023/12/26 15:26:38;;;;;;;6.20;1.80;;;14.70;46.90;;;8.62;68.20;95930.47;4971541;28;20446;-52
2023/12/26 15:29:04;;;;;;;5.07;1.80;;;14.40;47.40;;;8.49;68.36;95934.28;4959123;28;20117;-56
2023/12/26 15:31:30;;;;;;;8.18;1.90;;;14.10;47.80;;;8.35;70.17;95925.81;4965832;28;20503;-51
2023/12/26 15:33:56;;;;;;;12.13;1.90;;;13.80;48.30;;;8.20;70.20;95917.59;4952979;28;20027;-48
2023/12/26 15:36:25;;;;;;;5.82;1.52;;;13.60;48.70;;;8.08;71.10;95925.63;4963077;28;20101;-49
2023/12/26 15:38:53;;;;;;;3.25;1.60;;;13.40;49.10;;;7.92;71.95;95919.25;4980685;28;20054;-48
2023/12/26 15:41:24;;;;;;;4.57;1.67;;;13.10;49.40;;;7.78;73.48;95916.13;4954339;28;20023;-50
2023/12/26 15:43:54;;;;;;;9.55;2.13;;;12.90;49.90;;;7.65;74.19;95921.72;4984779;28;20381;-49
2023/12/26 15:46:23;;;;;;;3.80;1.63;;;12.70;50.20;;;7.54;74.64;95919.91;4953228;28;20029;-50
2023/12/26 15:48:52;;;;;;;4.88;1.88;;;12.50;50.60;;;7.42;75.58;95915.44;4979881;28;20109;-49
2023/12/26 15:51:21;;;;;;;5.72;2.03;;;12.40;50.90;;;7.29;76.01;95914.94;4962051;28;20072;-52
2023/12/26 15:53:49;;;;;;;6.00;1.67;;;12.20;51.10;;;7.16;76.36;95921.31;4958008;28;20029;-50
2023/12/26 15:56:23;;;;;;;6.50;1.90;;;12.10;51.40;;;7.01;77.89;95916.50;4979494;28;20295;-49
2023/12/26 15:58:50;;;;;;;4.15;1.88;;;11.90;51.70;;;6.86;78.49;95926.75;4965844;28;20113;-48
2023/12/26 16:01:16;;;;;;;5.30;1.73;;;11.80;51.90;;;6.72;79.15;95920.91;4952717;28;20061;-52
2023/12/26 16:03:44;;;;;;;7.55;2.17;;;11.60;52.20;;;6.58;79.52;95925.66;4963502;28;20027;-53
2023/12/26 16:06:18;;;;;;;4.70;2.03;;;11.50;52.40;;;6.38;80.38;95927.81;4963802;28;20046;-52
2023/12/26 16:08:44;;;;;;;6.00;1.70;;;11.30;52.60;;;6.09;79.84;95929.53;4951262;28;20030;-51
2023/12/26 16:11:10;;;;;;;6.63;1.80;;;11.20;52.50;;;5.78;80.71;95926.88;4952335;28;20025;-50
2023/12/26 16:13:36;;;;;;;7.60;1.70;;;11.00;52.60;;;5.46;82.55;95934.25;4968475;28;20030;-50
2023/12/26 16:16:03;;;;;;;7.03;1.85;;;10.70;52.60;;;5.19;84.13;95930.31;4961019;28;20609;-48
2023/12/26 16:18:29;;;;;;;5.13;1.75;;;10.50;52.80;;;4.84;86.20;95923.00;4962989;28;20022;-48
2023/12/26 16:20:55;;;;;;;5.13;1.70;;;10.30;53.00;;;4.72;86.37;95924.75;4952649;28;20033;-48
2023/12/26 16:23:21;;;;;;;7.82;2.20;;;10.10;53.30;;;4.63;88.92;95922.38;4962046;28;20026;-47
2023/12/26 16:25:47;;;;;;;7.75;2.00;;;9.90;53.70;;;4.57;89.49;95938.28;4957116;28;20022;-53
2023/12/26 16:28:13;;;;;;;7.88;1.77;;;9.70;54.00;;;4.39;91.19;95947.78;4963183;28;20026;-48
2023/12/26 16:30:39;;;;;;;8.80;2.05;;;9.50;54.40;;;4.20;91.88;95947.94;4958554;28;20014;-47
2023/12/26 16:33:05;;;;;;;13.02;3.28;;;9.40;54.60;;;4.02;92.93;95964.53;4961249;28;20507;-53
2023/12/26 16:35:31;;;;;;;4.78;2.08;;;9.20;54.70;;;3.77;94.31;95951.31;4963083;28;20026;-49
2023/12/26 16:37:57;;;;;;;5.28;2.13;;;9.10;54.80;;;3.60;95.90;95956.25;4952636;28;20054;-47
2023/12/26 16:40:23;;;;;;;4.35;2.17;;;8.90;55.50;;;3.55;95.90;95966.63;4952585;28;20549;-49
2023/12/26 16:42:49;;;;;;;4.97;1.88;;;8.70;55.20;;;3.47;97.97;95972.94;4964468;28;20113;-47
2023/12/26 16:45:25;;;;;;;9.32;1.80;;;8.60;55.50;;;3.21;100.00;95977.31;4963280;28;20129;-48
2023/12/26 16:47:51;;;;;;;7.70;1.70;;;8.50;55.90;;;2.99;100.00;95989.13;4959147;28;20658;-48
2023/12/26 16:50:19;;;;;;;9.15;2.22;;;8.30;55.90;;;2.97;100.00;95975.34;4983486;28;20026;-49
2023/12/26 16:52:46;;;;;;;10.32;1.70;;;8.20;56.10;;;2.94;100.00;95976.56;4954577;28;20035;-47
2023/12/26 16:55:13;;;;;;;7.28;1.90;;;8.10;56.30;;;2.85;100.00;95967.31;4958913;28;20482;-50
2023/12/26 16:57:38;;;;;;;8.23;2.35;;;7.90;56.50;;;2.79;100.00;95960.25;4969072;28;20037;-48
2023/12/26 17:00:06;;;;;;;5.78;1.90;;;7.80;56.70;;;2.54;100.00;95968.78;4967310;28;20014;-48
2023/12/26 17:02:32;;;;;;;9.80;2.17;;;7.70;57.00;;;2.52;100.00;95967.38;4972168;28;20030;-50
2023/12/26 17:04:58;;;;;;;8.02;2.20;;;7.60;57.20;;;2.50;100.00;95969.38;4965037;28;20022;-47
2023/12/26 17:07:25;;;;;;;5.68;1.88;;;7.50;57.40;;;2.46;100.00;95961.09;4967274;28;20030;-47
2023/12/26 17:09:51;;;;;;;6.70;2.25;;;7.40;57.60;;;2.37;100.00;95967.56;4960468;28;20026;-47
2023/12/26 17:12:21;;;;;;;7.47;2.42;;;7.30;58.30;;;2.30;100.00;95958.88;4960802;28;20277;-52
2023/12/26 17:14:48;;;;;;;5.88;2.10;;;7.30;58.00;;;2.16;100.00;95958.06;4967221;28;20097;-48
2023/12/26 17:17:14;;;;;;;7.68;2.28;;;7.20;58.10;;;2.20;100.00;95956.66;4951295;28;20026;-51
2023/12/26 17:19:40;;;;;;;4.07;2.00;;;7.10;58.20;;;2.22;100.00;95967.78;4957757;28;20034;-47
2023/12/26 17:22:10;;;;;;;5.07;2.50;;;7.10;58.40;;;2.25;100.00;95972.63;4966209;28;20033;-48
2023/12/26 17:24:37;;;;;;;9.93;3.47;;;7.10;59.00;;;2.27;100.00;95970.63;4957528;28;20050;-49
2023/12/26 17:27:07;;;;;;;7.68;3.58;;;7.00;59.00;;;2.33;100.00;95966.38;4966369;28;20469;-51
2023/12/26 17:29:34;;;;;;;9.18;4.60;;;7.00;59.40;;;2.41;100.00;95968.78;4963806;28;20030;-48
2023/12/26 17:32:00;;;;;;;13.38;3.92;;;7.10;59.70;;;2.45;100.00;95977.09;4949334;28;20397;-52
2023/12/26 17:34:27;;;;;;;11.60;4.50;;;7.10;60.00;;;2.49;100.00;95973.03;4953153;28;20388;-47
2023/12/26 17:36:53;;;;;;;10.02;4.22;;;7.20;60.20;;;2.56;100.00;95976.44;4958712;28;20021;-48
2023/12/26 17:39:21;;;;;;;6.70;4.07;;;7.20;60.30;;;2.61;100.00;95981.13;4963136;28;20046;-49
2023/12/26 17:41:47;;;;;;;8.25;4.10;;;7.30;60.60;;;2.65;100.00;95985.75;4968362;28;20123;-49
2023/12/26 17:44:15;;;;;;;9.32;4.50;;;7.40;60.60;;;2.67;100.00;95980.31;4954063;28;20058;-47
2023/12/26 17:46:41;;;;;;;9.02;3.80;;;7.40;60.70;;;2.67;100.00;95978.47;4982448;28;20022;-47
2023/12/26 17:49:09;;;;;;;9.40;3.53;;;7.40;60.60;;;2.66;100.00;95978.66;4962017;28;20031;-50
2023/12/26 17:51:38;;;;;;;11.00;3.55;;;7.40;60.60;;;2.63;100.00;95971.97;4951791;28;20038;-49
2023/12/26 17:54:06;;;;;;;9.32;3.85;;;7.40;60.70;;;2.61;100.00;95978.47;4965018;28;20022;-49
2023/12/26 17:56:32;;;;;;;11.52;4.22;;;7.40;60.60;;;2.58;100.00;95981.53;4970210;28;20022;-50
2023/12/26 17:58:58;;;;;;;8.43;3.95;;;7.40;60.60;;;2.52;100.00;95980.50;4965053;28;20033;-48
2023/12/26 18:01:28;;;;;;;7.07;3.05;;;7.40;60.70;;;2.41;100.00;95981.91;4963656;28;20057;-47
2023/12/26 18:03:54;;;;;;;9.65;3.30;;;7.40;60.50;;;2.34;100.00;95980.31;4954242;28;20109;-49
2023/12/26 18:06:23;;;;;;;10.55;3.83;;;7.30;60.40;;;2.33;100.00;95992.66;4961533;28;20535;-50
2023/12/26 18:08:49;;;;;;;7.00;3.70;;;7.20;60.60;;;2.36;100.00;96002.78;4961038;28;20240;-49
2023/12/26 18:11:15;;;;;;;10.85;4.47;;;7.20;60.90;;;2.41;100.00;96002.94;4966039;28;20473;-48
2023/12/26 18:13:41;;;;;;;11.02;4.55;;;7.20;61.30;;;2.43;100.00;96010.66;4953174;28;20085;-48
2023/12/26 18:16:07;;;;;;;7.53;4.18;;;7.20;61.50;;;2.46;100.00;96010.25;4956398;28;20671;-47